createdAt,value
2023-05-08T00:03:02.753Z,74.67
2023-05-08T00:06:40.257Z,74.68
2023-05-08T00:13:55.491Z,73.89
2023-05-08T00:17:33.269Z,73.89
2023-05-08T00:21:10.481Z,74.11
2023-05-08T00:24:48.629Z,74.07
2023-05-08T00:28:26.373Z,74.16
2023-05-08T00:32:03.843Z,74.41
2023-05-08T00:35:44.124Z,74.19
2023-05-08T00:39:19.135Z,73.84
2023-05-08T00:42:56.402Z,73.70
2023-05-08T00:46:34.471Z,73.79
2023-05-08T00:50:12.537Z,74.06
2023-05-08T00:53:49.850Z,73.99
2023-05-08T00:57:27.996Z,74.53
2023-05-08T01:01:05.231Z,74.76
2023-05-08T01:04:45.146Z,74.55
2023-05-08T01:08:20.346Z,74.87
2023-05-08T01:12:19.844Z,75.47
2023-05-08T01:15:47.538Z,76.10
2023-05-08T01:19:50.848Z,76.04
2023-05-08T01:23:27.847Z,76.00
2023-05-08T01:30:59.386Z,76.16
2023-05-08T01:34:31.663Z,76.08
2023-05-08T01:37:54.745Z,76.81
2023-05-08T01:41:32.029Z,77.26
2023-05-08T01:45:14.234Z,77.07
2023-05-08T01:48:53.324Z,76.88
2023-05-08T01:52:31.900Z,77.02
2023-05-08T01:56:03.878Z,77.70
2023-05-08T01:59:41.234Z,77.59
2023-05-08T02:03:17.460Z,77.81
2023-05-08T02:06:56.477Z,78.35
2023-05-08T02:10:32.229Z,78.52
2023-05-08T02:14:09.685Z,78.58
2023-05-08T02:17:48.884Z,78.35
2023-05-08T02:21:24.803Z,78.95
2023-05-08T02:25:01.908Z,79.32
2023-05-08T02:28:41.143Z,79.25
2023-05-08T02:32:20.126Z,79.17
2023-05-08T02:35:56.982Z,79.03
2023-05-08T02:39:35.677Z,79.26
2023-05-08T02:43:09.888Z,79.66
2023-05-08T02:47:13.799Z,79.74
2023-05-08T02:50:36.398Z,79.96
2023-05-08T02:54:14.700Z,79.87
2023-05-08T02:57:46.791Z,80.18
2023-05-08T03:01:45.048Z,80.38
2023-05-08T03:05:03.581Z,80.94
2023-05-08T03:08:35.478Z,80.70
2023-05-08T03:12:23.802Z,81.36
2023-05-08T03:15:55.070Z,81.90
2023-05-08T03:19:36.241Z,81.37
2023-05-08T03:23:06.981Z,81.31
2023-05-08T03:26:43.366Z,81.92
2023-05-08T03:30:21.214Z,81.59
2023-05-08T03:33:58.265Z,81.75
2023-05-08T03:37:35.498Z,82.19
2023-05-08T03:41:13.537Z,82.10
2023-05-08T03:44:54.374Z,82.17
2023-05-08T03:48:48.765Z,82.80
2023-05-08T03:52:06.464Z,82.98
2023-05-08T03:55:43.176Z,82.02
2023-05-08T04:00:03.668Z,81.45
2023-05-08T04:04:07.942Z,81.12
2023-05-08T04:07:43.696Z,80.99
2023-05-08T04:11:15.748Z,81.14
2023-05-08T04:14:43.919Z,81.33
2023-05-08T04:18:19.237Z,81.42
2023-05-08T04:21:59.281Z,80.89
2023-05-08T04:25:36.011Z,81.85
2023-05-08T04:29:09.782Z,82.17
2023-05-08T04:32:49.395Z,82.47
2023-05-08T04:36:29.475Z,82.52
2023-05-08T04:40:05.028Z,82.01
2023-05-08T04:43:40.274Z,81.84
2023-05-08T04:47:18.212Z,82.52
2023-05-08T04:50:55.774Z,82.41
2023-05-08T04:54:33.170Z,82.58
2023-05-08T04:58:11.333Z,82.70
2023-05-08T05:01:48.620Z,83.16
2023-05-08T05:05:26.309Z,83.32
2023-05-08T05:09:05.069Z,81.11
2023-05-08T05:12:41.708Z,79.66
2023-05-08T05:16:18.972Z,78.86
2023-05-08T05:19:57.701Z,78.77
2023-05-08T05:23:53.404Z,78.01
2023-05-08T05:27:12.211Z,76.74
2023-05-08T05:30:49.809Z,75.74
2023-05-08T05:34:27.524Z,74.73
2023-05-08T05:38:07.280Z,74.22
2023-05-08T05:41:44.399Z,72.62
2023-05-08T05:45:20.824Z,71.69
2023-05-08T05:49:01.485Z,70.94
2023-05-08T05:52:35.845Z,70.17
2023-05-08T05:56:13.705Z,69.37
2023-05-08T05:59:52.664Z,68.45
2023-05-08T06:03:29.306Z,67.44
2023-05-08T06:07:06.483Z,66.36
2023-05-08T06:10:44.303Z,65.20
2023-05-08T06:14:22.172Z,64.91
2023-05-08T06:17:59.527Z,64.53
2023-05-08T06:21:37.722Z,63.70
2023-05-08T06:25:15.364Z,63.26
2023-05-08T06:28:52.618Z,63.26
2023-05-08T06:32:32.834Z,62.30
2023-05-08T06:36:08.265Z,62.71
2023-05-08T06:39:45.879Z,62.01
2023-05-08T06:43:23.594Z,61.29
2023-05-08T06:47:01.129Z,60.51
2023-05-08T06:50:40.781Z,60.01
2023-05-08T06:54:16.638Z,58.78
2023-05-08T06:57:54.161Z,57.25
2023-05-08T07:01:32.012Z,56.53
2023-05-08T07:05:10.065Z,55.21
2023-05-08T07:08:48.329Z,54.93
2023-05-08T07:16:03.009Z,53.44
2023-05-08T07:23:19.139Z,52.70
2023-05-08T07:26:56.042Z,52.52
2023-05-08T07:30:33.991Z,51.01
2023-05-08T07:34:10.967Z,52.10
2023-05-08T07:37:48.816Z,50.85
2023-05-08T07:41:26.747Z,52.04
2023-05-08T07:45:04.326Z,51.90
2023-05-08T07:48:42.283Z,52.04
2023-05-08T07:52:19.282Z,52.64
2023-05-08T08:03:24.428Z,52.60
2023-05-08T08:07:01.833Z,51.55
2023-05-08T08:14:17.205Z,49.69
2023-05-08T08:17:55.420Z,50.72
2023-05-08T08:21:51.718Z,49.76
2023-05-08T08:28:47.869Z,51.41
2023-05-08T08:32:25.802Z,52.92
2023-05-08T08:36:03.871Z,54.39
2023-05-08T08:39:40.889Z,54.57
2023-05-08T08:43:18.812Z,54.53
2023-05-08T08:46:58.891Z,54.37
2023-05-08T08:50:36.002Z,54.35
2023-05-08T08:54:13.797Z,54.16
2023-05-08T08:58:00.401Z,54.09
2023-05-08T09:01:31.558Z,53.36
2023-05-08T09:05:05.700Z,53.55
2023-05-08T09:08:43.530Z,53.66
2023-05-08T09:12:20.336Z,53.63
2023-05-08T09:15:59.924Z,53.65
2023-05-08T09:19:36.977Z,53.82
2023-05-08T09:23:17.479Z,54.42
2023-05-08T09:26:50.925Z,54.46
2023-05-08T09:30:28.597Z,54.90
2023-05-08T09:34:08.307Z,54.88
2023-05-08T09:37:44.290Z,54.76
2023-05-08T09:41:23.516Z,55.02
2023-05-08T09:44:59.245Z,55.38
2023-05-08T09:48:39.861Z,54.99
2023-05-08T09:52:16.062Z,54.59
2023-05-08T09:55:52.210Z,53.50
2023-05-08T09:59:33.945Z,53.27
2023-05-08T10:03:07.786Z,52.35
2023-05-08T10:06:57.763Z,52.60
2023-05-08T10:10:28.462Z,52.69
2023-05-08T10:14:01.308Z,53.39
2023-05-08T10:17:44.379Z,53.41
2023-05-08T10:21:18.190Z,53.17
2023-05-08T10:24:58.314Z,53.00
2023-05-08T10:28:55.324Z,52.71
2023-05-08T10:32:14.438Z,52.80
2023-05-08T10:35:49.224Z,53.04
2023-05-08T10:39:28.959Z,52.85
2023-05-08T10:43:07.133Z,53.32
2023-05-08T10:51:00.004Z,53.89
2023-05-08T10:54:34.305Z,54.00
2023-05-08T10:58:06.544Z,54.31
2023-05-08T11:01:31.480Z,54.60
2023-05-08T11:05:21.086Z,54.71
2023-05-08T11:08:51.589Z,54.27
2023-05-08T11:12:26.884Z,53.87
2023-05-08T11:16:02.070Z,52.97
2023-05-08T11:19:39.204Z,53.95
2023-05-08T11:23:30.629Z,54.64
2023-05-08T11:26:54.277Z,54.87
2023-05-08T11:30:32.707Z,54.89
2023-05-08T11:34:49.289Z,54.84
2023-05-08T11:38:36.514Z,55.10
2023-05-08T11:41:52.031Z,55.20
2023-05-08T11:45:31.090Z,55.38
2023-05-08T11:49:12.536Z,55.85
2023-05-08T11:52:45.310Z,56.52
2023-05-08T11:56:23.250Z,57.16
2023-05-08T12:00:08.286Z,57.34
2023-05-08T12:03:38.514Z,57.27
2023-05-08T12:10:57.941Z,56.79
2023-05-08T12:14:31.566Z,56.31
2023-05-08T12:18:08.982Z,55.34
2023-05-08T12:21:51.520Z,54.88
2023-05-08T12:25:25.830Z,54.99
2023-05-08T12:29:01.804Z,55.59
2023-05-08T12:33:00.364Z,56.29
2023-05-08T12:36:17.155Z,56.62
2023-05-08T12:39:55.161Z,57.05
2023-05-08T12:43:36.415Z,57.45
2023-05-08T12:47:10.446Z,57.76
2023-05-08T12:50:48.006Z,58.18
2023-05-08T12:54:33.376Z,58.62
2023-05-08T12:58:15.612Z,58.97
2023-05-08T13:01:41.198Z,59.07
2023-05-08T13:05:23.686Z,59.10
2023-05-08T13:08:56.211Z,59.33
2023-05-08T13:12:34.363Z,59.58
2023-05-08T13:16:11.572Z,59.46
2023-05-08T13:19:49.321Z,59.26
2023-05-08T13:23:26.590Z,59.17
2023-05-08T13:27:04.612Z,58.60
2023-05-08T13:30:42.522Z,58.09
2023-05-08T13:34:20.076Z,57.87
2023-05-08T13:37:58.591Z,56.99
2023-05-08T13:41:35.261Z,56.60
2023-05-08T13:45:16.561Z,56.99
2023-05-08T13:48:50.475Z,56.65
2023-05-08T13:52:30.486Z,56.48
2023-05-08T13:56:06.432Z,56.61
2023-05-08T13:59:43.618Z,56.27
2023-05-08T14:03:21.493Z,55.91
2023-05-08T14:06:59.873Z,56.08
2023-05-08T14:10:36.946Z,56.04
2023-05-08T14:14:14.542Z,55.97
2023-05-08T14:17:51.984Z,56.11
2023-05-08T14:21:31.513Z,56.53
2023-05-08T14:25:08.340Z,56.82
2023-05-08T14:28:46.836Z,56.90
2023-05-08T14:32:22.774Z,56.95
2023-05-08T14:36:00.294Z,57.12
2023-05-08T14:39:38.281Z,57.03
2023-05-08T14:43:34.871Z,57.57
2023-05-08T14:46:53.361Z,58.17
2023-05-08T14:50:31.526Z,58.48
2023-05-08T14:57:50.057Z,58.75
2023-05-08T15:01:24.233Z,58.69
2023-05-08T15:05:03.210Z,58.64
2023-05-08T15:08:39.469Z,58.73
2023-05-08T15:12:16.965Z,58.87
2023-05-08T15:15:54.581Z,58.94
2023-05-08T15:19:32.155Z,59.47
2023-05-08T15:23:09.843Z,60.01
2023-05-08T15:26:47.455Z,60.57
2023-05-08T15:30:25.326Z,60.93
2023-05-08T15:34:02.933Z,60.83
2023-05-08T15:37:41.372Z,61.02
2023-05-08T15:41:18.167Z,61.51
2023-05-08T15:44:57.597Z,61.85
2023-05-08T15:48:34.016Z,62.05
2023-05-08T15:52:11.760Z,61.84
2023-05-08T15:55:48.979Z,61.99
2023-05-08T15:59:26.818Z,62.09
2023-05-08T16:03:04.989Z,62.32
2023-05-08T16:06:42.649Z,62.32
2023-05-08T16:10:19.988Z,62.64
2023-05-08T16:13:59.308Z,62.72
2023-05-08T16:17:35.443Z,62.69
2023-05-08T16:21:13.478Z,62.77
2023-05-08T16:24:54.101Z,62.99
2023-05-08T16:28:28.201Z,63.36
2023-05-08T16:32:06.149Z,63.45
2023-05-08T16:35:43.450Z,63.51
2023-05-08T16:39:21.190Z,63.46
2023-05-08T16:42:58.961Z,63.21
2023-05-08T16:46:36.900Z,63.15
2023-05-08T16:50:14.387Z,63.24
2023-05-08T16:53:52.392Z,63.70
2023-05-08T16:57:30.829Z,63.99
2023-05-08T17:01:07.730Z,64.32
2023-05-08T17:04:47.957Z,64.42
2023-05-08T17:08:22.926Z,64.70
2023-05-08T17:12:01.912Z,64.98
2023-05-08T17:19:15.738Z,65.49
2023-05-08T17:22:54.460Z,65.70
2023-05-08T17:26:34.312Z,65.97
2023-05-08T17:30:12.241Z,66.13
2023-05-08T17:33:46.356Z,66.26
2023-05-08T17:37:23.851Z,66.36
2023-05-08T17:41:01.542Z,66.57
2023-05-08T17:44:39.205Z,66.69
2023-05-08T17:48:16.947Z,66.90
2023-05-08T17:51:54.485Z,66.97
2023-05-08T17:55:32.456Z,67.12
2023-05-08T17:59:09.818Z,67.35
2023-05-08T18:02:47.827Z,67.56
2023-05-08T18:06:25.459Z,67.84
2023-05-08T18:10:02.647Z,68.10
2023-05-08T18:13:40.845Z,68.39
2023-05-08T18:17:22.691Z,68.61
2023-05-08T18:20:55.772Z,68.81
2023-05-08T18:24:33.973Z,69.16
2023-05-08T18:28:11.432Z,69.22
2023-05-08T18:31:49.219Z,69.22
2023-05-08T18:35:26.880Z,69.48
2023-05-08T18:39:04.660Z,69.58
2023-05-08T18:42:43.834Z,69.99
2023-05-08T18:46:20.549Z,70.35
2023-05-08T18:50:00.325Z,70.78
2023-05-08T18:53:38.566Z,70.93
2023-05-08T18:57:13.074Z,71.03
2023-05-08T19:00:51.350Z,71.35
2023-05-08T19:04:28.440Z,71.18
2023-05-08T19:08:05.700Z,71.15
2023-05-08T19:11:43.491Z,71.21
2023-05-08T19:15:21.112Z,71.27
2023-05-08T19:18:59.024Z,71.31
2023-05-08T19:22:36.900Z,71.44
2023-05-08T19:26:14.517Z,71.64
2023-05-08T19:29:52.014Z,71.74
2023-05-08T19:33:30.005Z,71.68
2023-05-08T19:37:07.164Z,71.73
2023-05-08T19:40:56.542Z,71.69
2023-05-08T19:44:22.582Z,71.80
2023-05-08T19:48:00.230Z,71.91
2023-05-08T19:51:37.778Z,72.28
2023-05-08T19:55:17.059Z,72.43
2023-05-08T19:58:53.132Z,72.37
2023-05-08T20:02:31.378Z,72.33
2023-05-08T20:06:08.621Z,72.20
2023-05-08T20:09:46.247Z,71.77
2023-05-08T20:13:23.813Z,71.78
2023-05-08T20:17:01.345Z,71.94
2023-05-08T20:20:39.105Z,72.30
2023-05-08T20:24:17.144Z,72.70
2023-05-08T20:27:54.681Z,72.81
2023-05-08T20:31:32.306Z,72.94
2023-05-08T20:35:09.994Z,73.13
2023-05-08T20:38:47.638Z,73.03
2023-05-08T20:42:44.167Z,73.06
2023-05-08T20:46:02.940Z,72.96
2023-05-08T20:49:40.553Z,73.07
2023-05-08T20:53:18.392Z,73.22
2023-05-08T20:56:55.911Z,72.97
2023-05-08T21:00:34.781Z,72.79
2023-05-08T21:04:11.744Z,73.18
2023-05-08T21:07:49.060Z,73.59
2023-05-08T21:11:26.680Z,73.58
2023-05-08T21:15:05.021Z,73.54
2023-05-08T21:18:41.769Z,73.94
2023-05-08T21:22:19.426Z,73.76
2023-05-08T21:25:57.377Z,73.88
2023-05-08T21:29:35.051Z,73.55
2023-05-08T21:33:16.615Z,73.45
2023-05-08T21:36:50.422Z,74.32
2023-05-08T21:40:28.331Z,74.66
2023-05-08T21:44:05.764Z,74.94
2023-05-08T21:47:43.008Z,75.22
2023-05-08T21:51:21.050Z,75.19
2023-05-08T21:54:58.506Z,75.62
2023-05-08T21:58:36.250Z,75.66
2023-05-08T22:02:13.817Z,75.81
2023-05-08T22:05:52.059Z,76.20
2023-05-08T22:09:29.390Z,76.68
2023-05-08T22:13:07.726Z,76.85
2023-05-08T22:20:23.104Z,77.36
2023-05-08T22:24:00.624Z,77.45
2023-05-08T22:27:37.595Z,77.62
2023-05-08T22:31:15.687Z,77.51
2023-05-08T22:34:52.977Z,77.53
2023-05-08T22:38:31.225Z,77.65
2023-05-08T22:42:09.167Z,77.66
2023-05-08T22:45:46.314Z,78.02
2023-05-08T22:49:24.002Z,78.18
2023-05-08T22:53:04.277Z,78.52
2023-05-08T22:56:39.097Z,78.80
2023-05-08T23:00:16.649Z,78.72
2023-05-08T23:03:54.629Z,78.83
2023-05-08T23:11:09.666Z,79.14
2023-05-08T23:14:52.000Z,79.28
2023-05-08T23:18:25.010Z,79.33
2023-05-08T23:22:02.522Z,79.53
2023-05-08T23:25:40.204Z,79.56
2023-05-08T23:29:18.053Z,79.41
2023-05-08T23:32:55.646Z,79.08
2023-05-08T23:36:33.483Z,78.86
2023-05-08T23:40:11.566Z,78.51
2023-05-08T23:43:48.805Z,78.10
2023-05-08T23:47:26.478Z,77.73
2023-05-08T23:51:03.981Z,77.86
2023-05-08T23:54:41.644Z,77.85
2023-05-08T23:58:19.911Z,77.79
